sensor_id;sensor_type;location;lat;lon;timestamp;temperature;humidity
71128;SHT30;59249;59.736;30.568;2023-03-24T00:02:07;6.22;88.63
71128;SHT30;59249;59.736;30.568;2023-03-24T00:04:36;6.21;88.65
71128;SHT30;59249;59.736;30.568;2023-03-24T00:07:10;6.14;88.67
71128;SHT30;59249;59.736;30.568;2023-03-24T00:09:42;6.05;88.75
71128;SHT30;59249;59.736;30.568;2023-03-24T00:12:13;6.06;89.04
71128;SHT30;59249;59.736;30.568;2023-03-24T00:14:45;5.91;89.25
71128;SHT30;59249;59.736;30.568;2023-03-24T00:17:14;5.97;89.16
71128;SHT30;59249;59.736;30.568;2023-03-24T00:19:44;5.95;89.31
71128;SHT30;59249;59.736;30.568;2023-03-24T00:22:14;5.95;89.72
71128;SHT30;59249;59.736;30.568;2023-03-24T00:24:43;5.97;89.90
71128;SHT30;59249;59.736;30.568;2023-03-24T00:27:12;5.98;89.58
71128;SHT30;59249;59.736;30.568;2023-03-24T00:29:42;5.94;89.73
71128;SHT30;59249;59.736;30.568;2023-03-24T00:32:10;6.07;89.69
71128;SHT30;59249;59.736;30.568;2023-03-24T00:34:39;5.99;89.68
71128;SHT30;59249;59.736;30.568;2023-03-24T00:37:09;5.98;89.59
71128;SHT30;59249;59.736;30.568;2023-03-24T00:39:41;5.97;89.91
71128;SHT30;59249;59.736;30.568;2023-03-24T00:42:10;5.99;90.06
71128;SHT30;59249;59.736;30.568;2023-03-24T00:44:40;5.91;90.22
71128;SHT30;59249;59.736;30.568;2023-03-24T00:47:11;5.88;90.09
71128;SHT30;59249;59.736;30.568;2023-03-24T00:49:39;5.83;90.14
71128;SHT30;59249;59.736;30.568;2023-03-24T00:52:16;5.87;90.39
71128;SHT30;59249;59.736;30.568;2023-03-24T00:54:52;5.86;90.20
71128;SHT30;59249;59.736;30.568;2023-03-24T00:57:24;5.83;90.43
71128;SHT30;59249;59.736;30.568;2023-03-24T00:59:56;5.81;90.48
71128;SHT30;59249;59.736;30.568;2023-03-24T01:02:25;5.81;90.45
71128;SHT30;59249;59.736;30.568;2023-03-24T01:04:57;5.82;90.50
71128;SHT30;59249;59.736;30.568;2023-03-24T01:07:27;5.62;90.68
71128;SHT30;59249;59.736;30.568;2023-03-24T01:09:59;5.70;90.67
71128;SHT30;59249;59.736;30.568;2023-03-24T01:12:31;5.74;90.85
71128;SHT30;59249;59.736;30.568;2023-03-24T01:15:04;5.67;90.82
71128;SHT30;59249;59.736;30.568;2023-03-24T01:17:34;5.75;90.78
71128;SHT30;59249;59.736;30.568;2023-03-24T01:20:04;5.73;90.88
71128;SHT30;59249;59.736;30.568;2023-03-24T01:22:34;5.68;90.72
71128;SHT30;59249;59.736;30.568;2023-03-24T01:25:07;5.67;90.80
71128;SHT30;59249;59.736;30.568;2023-03-24T01:27:36;5.63;90.62
71128;SHT30;59249;59.736;30.568;2023-03-24T01:30:07;5.58;90.64
71128;SHT30;59249;59.736;30.568;2023-03-24T01:32:36;5.66;90.88
71128;SHT30;59249;59.736;30.568;2023-03-24T01:35:05;5.56;90.74
71128;SHT30;59249;59.736;30.568;2023-03-24T01:37:34;5.60;90.83
71128;SHT30;59249;59.736;30.568;2023-03-24T01:40:07;5.62;90.90
71128;SHT30;59249;59.736;30.568;2023-03-24T01:42:38;5.63;90.91
71128;SHT30;59249;59.736;30.568;2023-03-24T01:45:49;5.58;91.10
71128;SHT30;59249;59.736;30.568;2023-03-24T01:48:24;5.68;90.94
71128;SHT30;59249;59.736;30.568;2023-03-24T01:50:58;5.68;90.99
71128;SHT30;59249;59.736;30.568;2023-03-24T01:53:29;5.66;91.06
71128;SHT30;59249;59.736;30.568;2023-03-24T01:56:01;5.54;91.13
71128;SHT30;59249;59.736;30.568;2023-03-24T01:58:37;5.58;91.39
71128;SHT30;59249;59.736;30.568;2023-03-24T02:01:30;5.63;91.16
71128;SHT30;59249;59.736;30.568;2023-03-24T02:04:10;5.66;91.13
71128;SHT30;59249;59.736;30.568;2023-03-24T02:06:43;5.65;91.11
71128;SHT30;59249;59.736;30.568;2023-03-24T02:09:13;5.67;91.13
71128;SHT30;59249;59.736;30.568;2023-03-24T02:11:44;5.67;90.96
71128;SHT30;59249;59.736;30.568;2023-03-24T02:14:13;5.65;91.10
71128;SHT30;59249;59.736;30.568;2023-03-24T02:17:14;5.67;91.05
71128;SHT30;59249;59.736;30.568;2023-03-24T02:20:31;5.62;91.22
71128;SHT30;59249;59.736;30.568;2023-03-24T02:23:57;5.60;91.25
71128;SHT30;59249;59.736;30.568;2023-03-24T02:26:53;5.62;91.26
71128;SHT30;59249;59.736;30.568;2023-03-24T02:30:09;5.58;91.12
71128;SHT30;59249;59.736;30.568;2023-03-24T02:39:50;5.48;90.95
71128;SHT30;59249;59.736;30.568;2023-03-24T02:42:34;5.49;90.93
71128;SHT30;59249;59.736;30.568;2023-03-24T02:45:18;5.42;91.18
71128;SHT30;59249;59.736;30.568;2023-03-24T02:51:04;5.42;91.03
71128;SHT30;59249;59.736;30.568;2023-03-24T02:53:47;5.37;91.09
71128;SHT30;59249;59.736;30.568;2023-03-24T02:56:31;5.32;91.27
71128;SHT30;59249;59.736;30.568;2023-03-24T02:59:19;5.33;91.23
71128;SHT30;59249;59.736;30.568;2023-03-24T03:02:01;5.26;91.10
71128;SHT30;59249;59.736;30.568;2023-03-24T03:04:44;5.14;90.87
71128;SHT30;59249;59.736;30.568;2023-03-24T03:07:20;5.09;91.14
71128;SHT30;59249;59.736;30.568;2023-03-24T03:09:56;5.08;91.32
71128;SHT30;59249;59.736;30.568;2023-03-24T03:12:34;5.16;91.48
71128;SHT30;59249;59.736;30.568;2023-03-24T03:15:08;5.12;91.48
71128;SHT30;59249;59.736;30.568;2023-03-24T03:17:44;5.09;91.61
71128;SHT30;59249;59.736;30.568;2023-03-24T03:20:21;5.25;91.60
71128;SHT30;59249;59.736;30.568;2023-03-24T03:22:59;5.21;91.56
71128;SHT30;59249;59.736;30.568;2023-03-24T03:25:36;5.28;91.50
71128;SHT30;59249;59.736;30.568;2023-03-24T03:28:13;5.33;91.38
71128;SHT30;59249;59.736;30.568;2023-03-24T03:30:50;5.23;91.32
71128;SHT30;59249;59.736;30.568;2023-03-24T03:33:24;5.28;91.38
71128;SHT30;59249;59.736;30.568;2023-03-24T03:36:02;5.29;91.19
71128;SHT30;59249;59.736;30.568;2023-03-24T03:38:44;5.19;91.31
71128;SHT30;59249;59.736;30.568;2023-03-24T03:41:15;5.23;91.48
71128;SHT30;59249;59.736;30.568;2023-03-24T03:43:48;5.19;91.46
71128;SHT30;59249;59.736;30.568;2023-03-24T03:46:18;5.26;91.64
71128;SHT30;59249;59.736;30.568;2023-03-24T03:48:48;5.17;91.27
71128;SHT30;59249;59.736;30.568;2023-03-24T03:51:18;5.21;91.09
71128;SHT30;59249;59.736;30.568;2023-03-24T03:53:57;5.29;91.19
71128;SHT30;59249;59.736;30.568;2023-03-24T03:56:32;5.29;91.17
71128;SHT30;59249;59.736;30.568;2023-03-24T03:59:27;5.24;91.18
71128;SHT30;59249;59.736;30.568;2023-03-24T04:02:02;5.23;91.12
71128;SHT30;59249;59.736;30.568;2023-03-24T04:05:15;5.32;91.20
71128;SHT30;59249;59.736;30.568;2023-03-24T04:08:24;5.29;91.13
71128;SHT30;59249;59.736;30.568;2023-03-24T04:15:33;5.26;90.78
71128;SHT30;59249;59.736;30.568;2023-03-24T04:18:52;5.28;90.63
71128;SHT30;59249;59.736;30.568;2023-03-24T04:21:38;5.25;90.71
71128;SHT30;59249;59.736;30.568;2023-03-24T04:24:23;5.30;91.50
71128;SHT30;59249;59.736;30.568;2023-03-24T04:27:09;5.49;91.44
71128;SHT30;59249;59.736;30.568;2023-03-24T04:29:49;5.51;90.91
71128;SHT30;59249;59.736;30.568;2023-03-24T04:32:33;5.55;90.61
71128;SHT30;59249;59.736;30.568;2023-03-24T04:35:08;5.47;90.56
71128;SHT30;59249;59.736;30.568;2023-03-24T04:38:05;5.58;90.48
71128;SHT30;59249;59.736;30.568;2023-03-24T04:40:41;5.57;90.54
71128;SHT30;59249;59.736;30.568;2023-03-24T04:43:17;5.64;90.39
71128;SHT30;59249;59.736;30.568;2023-03-24T04:45:47;5.71;90.33
71128;SHT30;59249;59.736;30.568;2023-03-24T04:48:33;5.75;90.26
71128;SHT30;59249;59.736;30.568;2023-03-24T04:51:22;5.81;89.86
71128;SHT30;59249;59.736;30.568;2023-03-24T04:54:06;5.72;89.38
71128;SHT30;59249;59.736;30.568;2023-03-24T04:56:43;5.80;89.48
71128;SHT30;59249;59.736;30.568;2023-03-24T04:59:21;5.78;89.54
71128;SHT30;59249;59.736;30.568;2023-03-24T05:01:50;5.82;89.49
71128;SHT30;59249;59.736;30.568;2023-03-24T05:04:28;5.67;89.54
71128;SHT30;59249;59.736;30.568;2023-03-24T05:07:07;5.76;89.43
71128;SHT30;59249;59.736;30.568;2023-03-24T05:09:36;5.79;89.58
71128;SHT30;59249;59.736;30.568;2023-03-24T05:12:05;5.93;89.26
71128;SHT30;59249;59.736;30.568;2023-03-24T05:14:54;5.95;89.18
71128;SHT30;59249;59.736;30.568;2023-03-24T05:17:23;6.07;89.20
71128;SHT30;59249;59.736;30.568;2023-03-24T05:19:53;6.17;89.07
71128;SHT30;59249;59.736;30.568;2023-03-24T05:22:23;6.24;89.18
71128;SHT30;59249;59.736;30.568;2023-03-24T05:24:52;6.27;88.81
71128;SHT30;59249;59.736;30.568;2023-03-24T05:27:22;6.32;88.73
71128;SHT30;59249;59.736;30.568;2023-03-24T05:29:55;6.46;88.63
71128;SHT30;59249;59.736;30.568;2023-03-24T05:32:29;6.59;88.56
71128;SHT30;59249;59.736;30.568;2023-03-24T05:34:59;6.75;88.23
71128;SHT30;59249;59.736;30.568;2023-03-24T05:37:32;6.68;87.99
71128;SHT30;59249;59.736;30.568;2023-03-24T05:40:02;6.81;87.65
71128;SHT30;59249;59.736;30.568;2023-03-24T05:42:48;6.84;87.61
71128;SHT30;59249;59.736;30.568;2023-03-24T05:45:19;6.89;87.26
71128;SHT30;59249;59.736;30.568;2023-03-24T05:47:47;6.94;87.08
71128;SHT30;59249;59.736;30.568;2023-03-24T05:50:23;6.84;87.08
71128;SHT30;59249;59.736;30.568;2023-03-24T05:52:52;6.98;86.92
71128;SHT30;59249;59.736;30.568;2023-03-24T05:55:44;7.05;86.82
71128;SHT30;59249;59.736;30.568;2023-03-24T05:58:33;6.97;86.50
71128;SHT30;59249;59.736;30.568;2023-03-24T06:01:07;7.07;86.52
71128;SHT30;59249;59.736;30.568;2023-03-24T06:03:37;7.09;86.34
71128;SHT30;59249;59.736;30.568;2023-03-24T06:06:14;7.09;86.44
71128;SHT30;59249;59.736;30.568;2023-03-24T06:08:45;7.03;86.21
71128;SHT30;59249;59.736;30.568;2023-03-24T06:11:15;7.10;86.33
71128;SHT30;59249;59.736;30.568;2023-03-24T06:13:57;7.24;86.04
71128;SHT30;59249;59.736;30.568;2023-03-24T06:16:31;7.27;85.69
71128;SHT30;59249;59.736;30.568;2023-03-24T06:19:03;7.25;85.79
71128;SHT30;59249;59.736;30.568;2023-03-24T06:21:53;7.28;85.77
71128;SHT30;59249;59.736;30.568;2023-03-24T06:24:27;7.24;85.81
71128;SHT30;59249;59.736;30.568;2023-03-24T06:27:03;7.24;85.87
71128;SHT30;59249;59.736;30.568;2023-03-24T06:29:36;7.26;85.90
71128;SHT30;59249;59.736;30.568;2023-03-24T06:32:05;7.22;85.88
71128;SHT30;59249;59.736;30.568;2023-03-24T06:34:40;7.17;86.05
71128;SHT30;59249;59.736;30.568;2023-03-24T06:37:24;7.25;85.98
71128;SHT30;59249;59.736;30.568;2023-03-24T06:39:54;7.20;85.89
71128;SHT30;59249;59.736;30.568;2023-03-24T06:42:26;7.17;85.94
71128;SHT30;59249;59.736;30.568;2023-03-24T06:44:55;7.19;85.98
71128;SHT30;59249;59.736;30.568;2023-03-24T06:47:24;7.24;85.99
71128;SHT30;59249;59.736;30.568;2023-03-24T06:49:55;7.32;85.88
71128;SHT30;59249;59.736;30.568;2023-03-24T06:52:30;7.30;86.01
71128;SHT30;59249;59.736;30.568;2023-03-24T06:54:59;7.49;86.39
71128;SHT30;59249;59.736;30.568;2023-03-24T06:57:35;7.55;86.24
71128;SHT30;59249;59.736;30.568;2023-03-24T07:00:27;7.61;85.97
71128;SHT30;59249;59.736;30.568;2023-03-24T07:03:08;7.79;85.59
71128;SHT30;59249;59.736;30.568;2023-03-24T07:05:42;7.91;85.60
71128;SHT30;59249;59.736;30.568;2023-03-24T07:08:13;7.85;85.47
71128;SHT30;59249;59.736;30.568;2023-03-24T07:11:04;7.97;85.40
71128;SHT30;59249;59.736;30.568;2023-03-24T07:13:36;8.12;84.95
71128;SHT30;59249;59.736;30.568;2023-03-24T07:16:06;8.16;84.97
71128;SHT30;59249;59.736;30.568;2023-03-24T07:19:12;8.21;84.80
71128;SHT30;59249;59.736;30.568;2023-03-24T07:21:48;8.23;84.61
71128;SHT30;59249;59.736;30.568;2023-03-24T07:24:29;8.29;84.38
71128;SHT30;59249;59.736;30.568;2023-03-24T07:27:16;8.42;84.44
71128;SHT30;59249;59.736;30.568;2023-03-24T07:29:48;8.46;84.12
71128;SHT30;59249;59.736;30.568;2023-03-24T07:32:24;8.52;83.84
71128;SHT30;59249;59.736;30.568;2023-03-24T07:34:56;8.70;83.72
71128;SHT30;59249;59.736;30.568;2023-03-24T07:37:25;8.76;83.76
71128;SHT30;59249;59.736;30.568;2023-03-24T07:39:58;8.84;83.29
71128;SHT30;59249;59.736;30.568;2023-03-24T07:42:35;8.95;83.30
71128;SHT30;59249;59.736;30.568;2023-03-24T07:45:37;8.97;83.32
71128;SHT30;59249;59.736;30.568;2023-03-24T07:48:10;8.98;82.98
71128;SHT30;59249;59.736;30.568;2023-03-24T07:50:40;9.05;82.88
71128;SHT30;59249;59.736;30.568;2023-03-24T07:53:34;9.11;83.07
71128;SHT30;59249;59.736;30.568;2023-03-24T07:56:22;9.15;82.71
71128;SHT30;59249;59.736;30.568;2023-03-24T07:58:56;9.23;82.92
71128;SHT30;59249;59.736;30.568;2023-03-24T08:01:54;9.32;82.74
71128;SHT30;59249;59.736;30.568;2023-03-24T08:04:37;9.27;82.42
71128;SHT30;59249;59.736;30.568;2023-03-24T08:07:36;9.29;82.44
71128;SHT30;59249;59.736;30.568;2023-03-24T08:10:08;9.36;82.76
71128;SHT30;59249;59.736;30.568;2023-03-24T08:12:39;9.46;82.70
71128;SHT30;59249;59.736;30.568;2023-03-24T08:15:10;9.47;82.25
71128;SHT30;59249;59.736;30.568;2023-03-24T08:17:40;9.47;82.30
71128;SHT30;59249;59.736;30.568;2023-03-24T08:20:10;9.55;82.63
71128;SHT30;59249;59.736;30.568;2023-03-24T08:22:44;9.69;82.15
71128;SHT30;59249;59.736;30.568;2023-03-24T08:25:18;9.81;81.89
71128;SHT30;59249;59.736;30.568;2023-03-24T08:27:55;9.89;81.68
71128;SHT30;59249;59.736;30.568;2023-03-24T08:30:31;9.94;81.65
71128;SHT30;59249;59.736;30.568;2023-03-24T08:33:01;9.99;81.64
71128;SHT30;59249;59.736;30.568;2023-03-24T08:35:33;9.96;81.34
71128;SHT30;59249;59.736;30.568;2023-03-24T08:38:14;9.94;81.58
71128;SHT30;59249;59.736;30.568;2023-03-24T08:40:45;9.87;81.60
71128;SHT30;59249;59.736;30.568;2023-03-24T08:43:17;9.97;81.75
71128;SHT30;59249;59.736;30.568;2023-03-24T08:45:53;9.81;81.43
71128;SHT30;59249;59.736;30.568;2023-03-24T08:48:24;9.79;81.73
71128;SHT30;59249;59.736;30.568;2023-03-24T08:50:57;9.69;81.87
71128;SHT30;59249;59.736;30.568;2023-03-24T08:53:30;9.64;81.87
71128;SHT30;59249;59.736;30.568;2023-03-24T08:56:02;9.63;82.03
71128;SHT30;59249;59.736;30.568;2023-03-24T08:58:37;9.58;82.05
71128;SHT30;59249;59.736;30.568;2023-03-24T09:01:06;9.57;82.28
71128;SHT30;59249;59.736;30.568;2023-03-24T09:03:40;9.60;82.38
71128;SHT30;59249;59.736;30.568;2023-03-24T09:06:10;9.65;82.15
71128;SHT30;59249;59.736;30.568;2023-03-24T09:08:41;9.64;82.20
71128;SHT30;59249;59.736;30.568;2023-03-24T09:11:17;9.64;82.15
71128;SHT30;59249;59.736;30.568;2023-03-24T09:13:58;9.70;82.27
71128;SHT30;59249;59.736;30.568;2023-03-24T09:16:34;9.63;82.36
71128;SHT30;59249;59.736;30.568;2023-03-24T09:19:12;9.69;82.42
71128;SHT30;59249;59.736;30.568;2023-03-24T09:21:45;9.75;82.23
71128;SHT30;59249;59.736;30.568;2023-03-24T09:24:25;9.82;82.27
71128;SHT30;59249;59.736;30.568;2023-03-24T09:26:56;9.90;82.09
71128;SHT30;59249;59.736;30.568;2023-03-24T09:29:29;9.87;81.74
71128;SHT30;59249;59.736;30.568;2023-03-24T09:32:02;9.90;81.84
71128;SHT30;59249;59.736;30.568;2023-03-24T09:34:35;9.87;82.00
71128;SHT30;59249;59.736;30.568;2023-03-24T09:37:12;10.03;81.87
71128;SHT30;59249;59.736;30.568;2023-03-24T09:39:41;10.06;81.73
71128;SHT30;59249;59.736;30.568;2023-03-24T09:42:21;10.16;81.54
71128;SHT30;59249;59.736;30.568;2023-03-24T09:45:09;10.22;81.44
71128;SHT30;59249;59.736;30.568;2023-03-24T09:47:45;9.91;81.64
71128;SHT30;59249;59.736;30.568;2023-03-24T09:50:23;9.85;81.84
71128;SHT30;59249;59.736;30.568;2023-03-24T09:52:58;9.86;81.98
71128;SHT30;59249;59.736;30.568;2023-03-24T09:55:31;9.80;82.29
71128;SHT30;59249;59.736;30.568;2023-03-24T09:58:05;9.73;82.32
71128;SHT30;59249;59.736;30.568;2023-03-24T10:00:36;9.75;82.36
71128;SHT30;59249;59.736;30.568;2023-03-24T10:03:18;9.77;82.65
71128;SHT30;59249;59.736;30.568;2023-03-24T10:05:55;9.81;82.63
71128;SHT30;59249;59.736;30.568;2023-03-24T10:08:32;9.85;82.55
71128;SHT30;59249;59.736;30.568;2023-03-24T10:11:14;10.01;82.56
71128;SHT30;59249;59.736;30.568;2023-03-24T10:13:56;10.12;82.48
71128;SHT30;59249;59.736;30.568;2023-03-24T10:16:38;10.16;82.47
71128;SHT30;59249;59.736;30.568;2023-03-24T10:19:27;10.05;82.46
71128;SHT30;59249;59.736;30.568;2023-03-24T10:22:07;10.08;82.62
71128;SHT30;59249;59.736;30.568;2023-03-24T10:24:49;10.08;82.67
71128;SHT30;59249;59.736;30.568;2023-03-24T10:27:34;10.15;82.90
71128;SHT30;59249;59.736;30.568;2023-03-24T10:30:16;10.19;82.76
71128;SHT30;59249;59.736;30.568;2023-03-24T10:32:50;10.18;82.74
71128;SHT30;59249;59.736;30.568;2023-03-24T10:35:26;10.19;82.67
71128;SHT30;59249;59.736;30.568;2023-03-24T10:37:59;10.32;82.67
71128;SHT30;59249;59.736;30.568;2023-03-24T10:40:32;10.29;82.49
71128;SHT30;59249;59.736;30.568;2023-03-24T10:43:04;10.29;82.49
71128;SHT30;59249;59.736;30.568;2023-03-24T10:45:42;10.32;82.69
71128;SHT30;59249;59.736;30.568;2023-03-24T10:48:33;10.17;82.56
71128;SHT30;59249;59.736;30.568;2023-03-24T10:51:15;10.17;82.79
71128;SHT30;59249;59.736;30.568;2023-03-24T10:54:10;10.32;82.92
71128;SHT30;59249;59.736;30.568;2023-03-24T10:56:46;10.42;82.63
71128;SHT30;59249;59.736;30.568;2023-03-24T10:59:22;10.37;82.39
71128;SHT30;59249;59.736;30.568;2023-03-24T11:02:11;10.34;82.33
71128;SHT30;59249;59.736;30.568;2023-03-24T11:04:53;10.38;82.40
71128;SHT30;59249;59.736;30.568;2023-03-24T11:07:31;10.48;81.80
71128;SHT30;59249;59.736;30.568;2023-03-24T11:10:12;10.53;81.32
71128;SHT30;59249;59.736;30.568;2023-03-24T11:13:00;10.40;81.42
71128;SHT30;59249;59.736;30.568;2023-03-24T11:15:34;10.33;81.41
71128;SHT30;59249;59.736;30.568;2023-03-24T11:18:16;10.26;81.24
71128;SHT30;59249;59.736;30.568;2023-03-24T11:20:57;9.93;81.14
71128;SHT30;59249;59.736;30.568;2023-03-24T11:23:30;9.89;80.93
71128;SHT30;59249;59.736;30.568;2023-03-24T11:26:12;9.87;81.01
71128;SHT30;59249;59.736;30.568;2023-03-24T11:28:46;9.91;80.90
71128;SHT30;59249;59.736;30.568;2023-03-24T11:31:26;9.99;80.50
71128;SHT30;59249;59.736;30.568;2023-03-24T11:34:00;9.96;80.04
71128;SHT30;59249;59.736;30.568;2023-03-24T11:36:46;9.89;79.86
71128;SHT30;59249;59.736;30.568;2023-03-24T11:39:21;9.86;79.93
71128;SHT30;59249;59.736;30.568;2023-03-24T11:42:13;9.93;80.02
71128;SHT30;59249;59.736;30.568;2023-03-24T11:44:47;9.94;80.24
71128;SHT30;59249;59.736;30.568;2023-03-24T11:47:25;10.04;80.05
71128;SHT30;59249;59.736;30.568;2023-03-24T11:50:16;10.13;79.71
71128;SHT30;59249;59.736;30.568;2023-03-24T11:53:02;10.17;79.12
71128;SHT30;59249;59.736;30.568;2023-03-24T11:55:42;10.11;78.94
71128;SHT30;59249;59.736;30.568;2023-03-24T11:58:26;10.16;78.95
71128;SHT30;59249;59.736;30.568;2023-03-24T12:01:04;10.19;79.25
71128;SHT30;59249;59.736;30.568;2023-03-24T12:04:03;10.25;78.92
71128;SHT30;59249;59.736;30.568;2023-03-24T12:07:43;10.24;78.47
71128;SHT30;59249;59.736;30.568;2023-03-24T12:10:33;10.32;78.34
71128;SHT30;59249;59.736;30.568;2023-03-24T12:13:11;10.23;78.25
71128;SHT30;59249;59.736;30.568;2023-03-24T12:16:21;10.25;78.12
71128;SHT30;59249;59.736;30.568;2023-03-24T12:22:51;9.98;78.58
71128;SHT30;59249;59.736;30.568;2023-03-24T12:26:03;9.79;79.14
71128;SHT30;59249;59.736;30.568;2023-03-24T12:28:52;9.78;79.32
71128;SHT30;59249;59.736;30.568;2023-03-24T12:31:58;9.67;79.70
71128;SHT30;59249;59.736;30.568;2023-03-24T12:35:04;9.57;79.86
71128;SHT30;59249;59.736;30.568;2023-03-24T12:37:51;9.78;79.85
71128;SHT30;59249;59.736;30.568;2023-03-24T12:41:03;9.83;79.60
71128;SHT30;59249;59.736;30.568;2023-03-24T12:44:08;9.98;79.10
71128;SHT30;59249;59.736;30.568;2023-03-24T12:46:47;10.08;78.83
71128;SHT30;59249;59.736;30.568;2023-03-24T12:49:53;10.01;78.11
71128;SHT30;59249;59.736;30.568;2023-03-24T12:52:46;9.97;77.86
71128;SHT30;59249;59.736;30.568;2023-03-24T12:55:41;9.91;78.19
71128;SHT30;59249;59.736;30.568;2023-03-24T12:58:18;10.00;78.28
71128;SHT30;59249;59.736;30.568;2023-03-24T13:01:00;9.87;78.07
71128;SHT30;59249;59.736;30.568;2023-03-24T13:03:39;9.78;78.19
71128;SHT30;59249;59.736;30.568;2023-03-24T13:06:21;9.66;78.04
71128;SHT30;59249;59.736;30.568;2023-03-24T13:09:03;9.62;78.37
71128;SHT30;59249;59.736;30.568;2023-03-24T13:11:52;9.60;78.76
71128;SHT30;59249;59.736;30.568;2023-03-24T13:14:45;9.52;79.24
71128;SHT30;59249;59.736;30.568;2023-03-24T13:17:23;9.46;79.48
71128;SHT30;59249;59.736;30.568;2023-03-24T13:19:55;9.47;79.79
71128;SHT30;59249;59.736;30.568;2023-03-24T13:22:26;9.43;79.81
71128;SHT30;59249;59.736;30.568;2023-03-24T13:24:55;9.40;80.06
71128;SHT30;59249;59.736;30.568;2023-03-24T13:27:32;9.36;80.06
71128;SHT30;59249;59.736;30.568;2023-03-24T13:30:22;9.24;80.32
71128;SHT30;59249;59.736;30.568;2023-03-24T13:33:03;9.27;80.65
71128;SHT30;59249;59.736;30.568;2023-03-24T13:35:57;9.07;81.13
71128;SHT30;59249;59.736;30.568;2023-03-24T13:38:37;9.05;81.32
71128;SHT30;59249;59.736;30.568;2023-03-24T13:41:16;8.93;82.13
71128;SHT30;59249;59.736;30.568;2023-03-24T13:43:48;8.92;82.37
71128;SHT30;59249;59.736;30.568;2023-03-24T13:46:20;8.99;82.22
71128;SHT30;59249;59.736;30.568;2023-03-24T13:48:53;9.05;82.39
71128;SHT30;59249;59.736;30.568;2023-03-24T13:51:29;8.97;82.70
71128;SHT30;59249;59.736;30.568;2023-03-24T13:54:04;8.91;83.12
71128;SHT30;59249;59.736;30.568;2023-03-24T13:56:38;8.80;83.27
71128;SHT30;59249;59.736;30.568;2023-03-24T13:59:32;8.88;83.32
71128;SHT30;59249;59.736;30.568;2023-03-24T14:02:21;8.83;83.21
71128;SHT30;59249;59.736;30.568;2023-03-24T14:05:04;8.81;83.07
71128;SHT30;59249;59.736;30.568;2023-03-24T14:07:46;8.85;82.76
71128;SHT30;59249;59.736;30.568;2023-03-24T14:10:56;8.82;82.80
71128;SHT30;59249;59.736;30.568;2023-03-24T14:13:37;8.80;82.83
71128;SHT30;59249;59.736;30.568;2023-03-24T14:16:41;8.72;82.80
71128;SHT30;59249;59.736;30.568;2023-03-24T14:19:30;8.68;82.80
71128;SHT30;59249;59.736;30.568;2023-03-24T14:22:14;8.60;82.91
71128;SHT30;59249;59.736;30.568;2023-03-24T14:24:53;8.59;83.08
71128;SHT30;59249;59.736;30.568;2023-03-24T14:27:36;8.54;83.02
71128;SHT30;59249;59.736;30.568;2023-03-24T14:30:21;8.55;82.87
71128;SHT30;59249;59.736;30.568;2023-03-24T14:32:54;8.56;83.03
71128;SHT30;59249;59.736;30.568;2023-03-24T14:35:33;8.56;82.87
71128;SHT30;59249;59.736;30.568;2023-03-24T14:38:20;8.56;82.82
71128;SHT30;59249;59.736;30.568;2023-03-24T14:41:10;8.54;82.82
71128;SHT30;59249;59.736;30.568;2023-03-24T14:43:57;8.54;82.87
71128;SHT30;59249;59.736;30.568;2023-03-24T14:46:40;8.60;82.73
71128;SHT30;59249;59.736;30.568;2023-03-24T14:49:30;8.56;82.69
71128;SHT30;59249;59.736;30.568;2023-03-24T14:52:12;8.58;82.53
71128;SHT30;59249;59.736;30.568;2023-03-24T14:54:51;8.59;82.54
71128;SHT30;59249;59.736;30.568;2023-03-24T14:57:25;8.58;82.44
71128;SHT30;59249;59.736;30.568;2023-03-24T15:00:01;8.60;82.39
71128;SHT30;59249;59.736;30.568;2023-03-24T15:02:41;8.61;82.22
71128;SHT30;59249;59.736;30.568;2023-03-24T15:05:24;8.51;82.29
71128;SHT30;59249;59.736;30.568;2023-03-24T15:08:13;8.49;82.27
71128;SHT30;59249;59.736;30.568;2023-03-24T15:10:48;8.43;82.29
71128;SHT30;59249;59.736;30.568;2023-03-24T15:13:38;8.33;82.46
71128;SHT30;59249;59.736;30.568;2023-03-24T15:16:20;8.35;82.49
71128;SHT30;59249;59.736;30.568;2023-03-24T15:18:53;8.24;82.97
71128;SHT30;59249;59.736;30.568;2023-03-24T15:21:34;8.24;83.17
71128;SHT30;59249;59.736;30.568;2023-03-24T15:24:29;8.17;83.15
71128;SHT30;59249;59.736;30.568;2023-03-24T15:27:23;8.20;83.15
71128;SHT30;59249;59.736;30.568;2023-03-24T15:29:56;8.13;83.29
71128;SHT30;59249;59.736;30.568;2023-03-24T15:32:43;8.17;83.24
71128;SHT30;59249;59.736;30.568;2023-03-24T15:35:20;8.17;83.40
71128;SHT30;59249;59.736;30.568;2023-03-24T15:37:52;8.01;83.41
71128;SHT30;59249;59.736;30.568;2023-03-24T15:40:35;8.03;83.34
71128;SHT30;59249;59.736;30.568;2023-03-24T15:43:15;7.96;83.38
71128;SHT30;59249;59.736;30.568;2023-03-24T15:45:51;8.07;83.29
71128;SHT30;59249;59.736;30.568;2023-03-24T15:48:35;7.95;83.44
71128;SHT30;59249;59.736;30.568;2023-03-24T15:51:06;7.97;83.38
71128;SHT30;59249;59.736;30.568;2023-03-24T15:53:42;7.95;83.39
71128;SHT30;59249;59.736;30.568;2023-03-24T15:56:24;7.91;83.52
71128;SHT30;59249;59.736;30.568;2023-03-24T15:59:13;7.92;83.34
71128;SHT30;59249;59.736;30.568;2023-03-24T16:01:50;7.87;83.41
71128;SHT30;59249;59.736;30.568;2023-03-24T16:04:21;7.85;83.48
71128;SHT30;59249;59.736;30.568;2023-03-24T16:07:02;7.84;83.21
71128;SHT30;59249;59.736;30.568;2023-03-24T16:09:39;7.79;83.08
71128;SHT30;59249;59.736;30.568;2023-03-24T16:12:14;7.70;82.68
71128;SHT30;59249;59.736;30.568;2023-03-24T16:14:48;7.77;82.46
71128;SHT30;59249;59.736;30.568;2023-03-24T16:17:19;7.70;82.32
71128;SHT30;59249;59.736;30.568;2023-03-24T16:19:50;7.73;82.07
71128;SHT30;59249;59.736;30.568;2023-03-24T16:22:21;7.83;82.06
71128;SHT30;59249;59.736;30.568;2023-03-24T16:24:56;7.80;81.72
71128;SHT30;59249;59.736;30.568;2023-03-24T16:27:27;7.77;81.61
71128;SHT30;59249;59.736;30.568;2023-03-24T16:30:05;7.78;81.44
71128;SHT30;59249;59.736;30.568;2023-03-24T16:32:52;7.76;81.45
71128;SHT30;59249;59.736;30.568;2023-03-24T16:35:22;7.66;81.40
71128;SHT30;59249;59.736;30.568;2023-03-24T16:37:50;7.63;81.24
71128;SHT30;59249;59.736;30.568;2023-03-24T16:40:34;7.62;81.34
71128;SHT30;59249;59.736;30.568;2023-03-24T16:43:08;7.50;81.34
71128;SHT30;59249;59.736;30.568;2023-03-24T16:45:37;7.50;81.35
71128;SHT30;59249;59.736;30.568;2023-03-24T16:48:09;7.46;81.48
71128;SHT30;59249;59.736;30.568;2023-03-24T16:50:49;7.44;81.74
71128;SHT30;59249;59.736;30.568;2023-03-24T16:53:20;7.47;81.78
71128;SHT30;59249;59.736;30.568;2023-03-24T16:55:49;7.40;81.95
71128;SHT30;59249;59.736;30.568;2023-03-24T16:58:19;7.40;81.96
71128;SHT30;59249;59.736;30.568;2023-03-24T17:00:51;7.33;82.13
71128;SHT30;59249;59.736;30.568;2023-03-24T17:03:25;7.33;82.16